International Virtual Aviation Organisation

Russian Federation and Kazakhstan MCD

 

Карточка аэропорта UUWW

Внимание!
Информация на этой странице в стадии наполнения.
Если вы не увидели какой-то информации, или заметили неточность - пожалуйста сообщите нам!
Спасибо!
Команда RU-STAFF
Название аэропортаВнуково
Название аэропорта (англ.)Vnukovo
Превышение686 ft. (209.1 m.)
Координаты55°35.952', 37°16.386'
Высота перехода1200 m
Эшелон переходаBy ATC
Коды ответчика2101-2117
Зона ОрВДМосква РПИ (UUWV)
Данные METARUUWW 300100Z 13006MPS 9999 OVC006 02/01 Q1027 R06/290050 NOSIG
Проноз погоды (TAF)UUWW 292259Z 3000/3024 13006MPS 6000 OVC004 TX03/3000Z TNM01/3024Z TEMPO 3000/3007 1200 -SNRA BR OVC002 BECMG 3007/3009 FEW004 BKN007 TEMPO 3009/3021 -SHSN BKN004 SCT020CB
NOTAMshow/hide NOTAM
AWOS   TABLE

Информация о ВПП

ВПП Длина ВПП (м.) Покрытие Курс ВПП Частота ILS
013060Асфальтобетон13111.7
193060Асфальтобетон193111.5
063500Цементобетон58108.9
243500Цементобетон238111.1

Диспетчерские позиции

Позывной Наименование органа УВД Частота
UUWW_APPВнуково-Подход122.300
UUWW_DELВнуково-Деливери131.800
UUWW_DELВнуково-Деливери129.700
UUWW_GNDВнуково-Руление121.700
UUWW_GNDВнуково-Руление120.450
UUWW_R_APPВнуково-Круг126.000
UUWW_TWRВнуково-Вышка118.300



Спутниковое изображение